createdAt,value
2023-02-03T00:00:36.318Z,7.18
2023-02-03T00:03:03.062Z,8.77
2023-02-03T00:05:30.338Z,14.35
2023-02-03T00:07:57.078Z,6.25
2023-02-03T00:10:24.174Z,5.72
2023-02-03T00:12:54.856Z,10.85
2023-02-03T00:15:23.130Z,6.72
2023-02-03T00:17:49.836Z,10.10
2023-02-03T00:20:16.783Z,5.65
2023-02-03T00:22:43.503Z,7.65
2023-02-03T00:25:10.409Z,6.10
2023-02-03T00:27:37.096Z,10.75
2023-02-03T00:30:04.619Z,8.27
2023-02-03T00:32:31.427Z,12.18
2023-02-03T00:34:58.238Z,12.80
2023-02-03T00:37:24.996Z,9.23
2023-02-03T00:39:51.756Z,9.90
2023-02-03T00:42:18.442Z,10.48
2023-02-03T00:44:45.118Z,9.63
2023-02-03T00:47:11.892Z,7.35
2023-02-03T00:49:38.564Z,13.13
2023-02-03T00:52:05.555Z,11.10
2023-02-03T00:54:33.702Z,12.75
2023-02-03T00:57:00.625Z,7.85
2023-02-03T00:59:27.388Z,11.02
2023-02-03T01:01:54.095Z,6.05
2023-02-03T01:04:20.771Z,9.57
2023-02-03T01:06:47.407Z,8.30
2023-02-03T01:09:14.034Z,10.63
2023-02-03T01:11:40.741Z,9.95
2023-02-03T01:14:07.746Z,8.95
2023-02-03T01:16:38.019Z,6.05
2023-02-03T01:19:05.018Z,8.77
2023-02-03T01:21:32.328Z,10.40
2023-02-03T01:23:59.872Z,7.68
2023-02-03T01:26:26.764Z,6.60
2023-02-03T01:29:00.390Z,6.43
2023-02-03T01:31:34.887Z,7.85
2023-02-03T01:34:01.735Z,5.32
2023-02-03T01:36:30.069Z,5.22
2023-02-03T01:38:56.717Z,7.43
2023-02-03T01:41:29.230Z,9.63
2023-02-03T01:43:57.818Z,8.13
2023-02-03T01:46:37.087Z,8.73
2023-02-03T01:49:24.006Z,5.75
2023-02-03T01:51:51.042Z,6.95
2023-02-03T01:54:24.257Z,7.60
2023-02-03T01:56:54.725Z,6.57
2023-02-03T01:59:22.393Z,6.53
2023-02-03T02:01:49.736Z,7.22
2023-02-03T02:04:16.543Z,5.57
2023-02-03T02:06:43.373Z,8.13
2023-02-03T02:09:10.061Z,6.45
2023-02-03T02:11:37.582Z,3.92
2023-02-03T02:14:04.292Z,3.38
2023-02-03T02:17:20.740Z,2.20
2023-02-03T02:20:10.002Z,4.40
2023-02-03T02:22:51.679Z,3.17
2023-02-03T02:25:47.001Z,4.25
2023-02-03T02:28:36.648Z,4.05
2023-02-03T02:31:34.404Z,4.43
2023-02-03T02:34:04.179Z,7.97
2023-02-03T02:36:44.205Z,6.50
2023-02-03T02:39:16.333Z,8.52
2023-02-03T02:41:46.978Z,6.82
2023-02-03T02:44:30.683Z,5.57
2023-02-03T02:47:00.853Z,5.82
2023-02-03T02:49:34.775Z,3.95
2023-02-03T02:52:04.634Z,8.00
2023-02-03T02:54:33.049Z,2.75
2023-02-03T02:57:05.242Z,2.90
2023-02-03T02:59:32.375Z,3.25
2023-02-03T03:01:59.071Z,2.95
2023-02-03T03:04:28.499Z,2.22
2023-02-03T03:07:30.560Z,2.08
2023-02-03T03:10:01.247Z,3.92
2023-02-03T03:12:34.591Z,5.55
2023-02-03T03:15:24.262Z,4.00
2023-02-03T03:18:01.572Z,3.15
2023-02-03T03:20:28.981Z,2.25
2023-02-03T03:23:00.399Z,4.90
2023-02-03T03:25:41.097Z,4.15
2023-02-03T03:28:15.615Z,3.33
2023-02-03T03:30:42.480Z,5.95
2023-02-03T03:33:09.799Z,3.75
2023-02-03T03:35:45.783Z,4.20
2023-02-03T03:38:22.049Z,2.97
2023-02-03T03:40:59.705Z,2.50
2023-02-03T03:43:31.283Z,3.78
2023-02-03T03:46:23.654Z,3.63
2023-02-03T03:48:54.402Z,2.65
2023-02-03T03:51:48.402Z,2.53
2023-02-03T03:54:18.242Z,3.47
2023-02-03T03:56:54.970Z,4.40
2023-02-03T03:59:23.042Z,3.08
2023-02-03T04:01:51.153Z,2.70
2023-02-03T04:04:18.497Z,3.60
2023-02-03T04:06:45.209Z,3.38
2023-02-03T04:09:11.891Z,2.42
2023-02-03T04:11:57.080Z,5.18
2023-02-03T04:16:50.461Z,2.50
2023-02-03T04:19:17.106Z,3.53
2023-02-03T04:21:43.826Z,3.10
2023-02-03T04:24:11.931Z,5.85
2023-02-03T04:26:38.862Z,4.75
2023-02-03T04:29:05.571Z,6.20
2023-02-03T04:31:32.608Z,7.32
2023-02-03T04:33:59.398Z,3.00
2023-02-03T04:36:26.208Z,3.63
2023-02-03T04:38:53.000Z,6.07
2023-02-03T04:41:19.987Z,5.25
2023-02-03T04:43:46.677Z,3.90
2023-02-03T04:46:13.485Z,5.82
2023-02-03T04:48:40.198Z,4.85
2023-02-03T04:51:08.623Z,4.43
2023-02-03T04:53:35.900Z,6.55
2023-02-03T04:56:02.804Z,6.45
2023-02-03T04:58:29.689Z,3.47
2023-02-03T05:00:56.496Z,9.60
2023-02-03T05:03:25.824Z,7.45
2023-02-03T05:05:53.110Z,7.90
2023-02-03T05:08:20.202Z,7.85
2023-02-03T05:10:46.893Z,6.32
2023-02-03T05:13:13.574Z,10.13
2023-02-03T05:15:40.232Z,7.43
2023-02-03T05:18:07.150Z,7.93
2023-02-03T05:20:33.877Z,11.75
2023-02-03T05:23:01.302Z,4.18
2023-02-03T05:25:28.072Z,7.38
2023-02-03T05:27:54.760Z,4.97
2023-02-03T05:30:21.668Z,3.97
2023-02-03T05:32:49.392Z,4.72
2023-02-03T05:35:16.165Z,6.72
2023-02-03T05:37:45.476Z,6.55
2023-02-03T05:40:31.788Z,4.93
2023-02-03T05:42:58.585Z,3.95
2023-02-03T05:45:25.445Z,3.55
2023-02-03T05:47:52.265Z,3.72
2023-02-03T05:50:19.136Z,8.63
2023-02-03T05:52:46.272Z,5.82
2023-02-03T05:55:13.080Z,4.97
2023-02-03T05:57:39.863Z,6.38
2023-02-03T06:00:07.718Z,6.30
2023-02-03T06:02:34.440Z,5.05
2023-02-03T06:05:01.114Z,5.00
2023-02-03T06:07:27.836Z,4.10
2023-02-03T06:09:54.480Z,7.63
2023-02-03T06:12:21.197Z,3.15
2023-02-03T06:14:47.874Z,5.22
2023-02-03T06:17:14.584Z,4.57
2023-02-03T06:19:41.228Z,4.03
2023-02-03T06:22:08.016Z,6.10
2023-02-03T06:24:34.660Z,3.55
2023-02-03T06:27:01.334Z,5.70
2023-02-03T06:29:27.989Z,4.47
2023-02-03T06:31:54.774Z,7.10
2023-02-03T06:34:21.570Z,4.28
2023-02-03T06:36:49.131Z,4.97
2023-02-03T06:39:16.005Z,3.25
2023-02-03T06:41:42.688Z,3.42
2023-02-03T06:44:09.547Z,3.83
2023-02-03T06:46:36.320Z,4.38
2023-02-03T06:49:03.192Z,4.57
2023-02-03T06:51:29.884Z,4.25
2023-02-03T06:53:56.570Z,5.32
2023-02-03T06:56:23.251Z,4.72
2023-02-03T06:58:49.891Z,5.45
2023-02-03T07:01:16.758Z,3.95
2023-02-03T07:03:43.624Z,2.45
2023-02-03T07:06:10.319Z,3.88
2023-02-03T07:08:37.101Z,3.75
2023-02-03T07:11:03.927Z,3.33
2023-02-03T07:13:30.716Z,3.67
2023-02-03T07:15:57.444Z,5.85
2023-02-03T07:21:13.019Z,3.05
2023-02-03T07:23:40.161Z,3.80
2023-02-03T07:26:08.050Z,3.00
2023-02-03T07:28:35.951Z,4.53
2023-02-03T07:31:04.836Z,10.38
2023-02-03T07:33:32.165Z,2.50
2023-02-03T07:36:00.257Z,4.15
2023-02-03T07:38:28.097Z,3.25
2023-02-03T07:40:54.778Z,4.03
2023-02-03T07:43:21.469Z,5.97
2023-02-03T07:45:48.126Z,5.47
2023-02-03T07:48:14.835Z,4.95
2023-02-03T07:50:42.030Z,4.32
2023-02-03T07:53:11.573Z,1.38
2023-02-03T07:55:39.899Z,3.85
2023-02-03T07:58:07.375Z,2.58
2023-02-03T08:00:34.762Z,4.20
2023-02-03T08:03:01.466Z,4.25
2023-02-03T08:05:29.415Z,2.92
2023-02-03T08:07:56.783Z,2.88
2023-02-03T08:10:23.483Z,5.15
2023-02-03T08:12:53.606Z,3.05
2023-02-03T08:15:20.423Z,5.55
2023-02-03T08:17:48.781Z,8.30
2023-02-03T08:20:16.457Z,5.95
2023-02-03T08:22:43.158Z,4.20
2023-02-03T08:25:10.409Z,7.50
2023-02-03T08:27:37.542Z,4.78
2023-02-03T08:30:05.460Z,7.05
2023-02-03T08:32:33.199Z,5.65
2023-02-03T08:34:59.888Z,6.78
2023-02-03T08:37:26.856Z,8.40
2023-02-03T08:39:53.825Z,4.13
2023-02-03T08:42:20.663Z,3.42
2023-02-03T08:44:48.848Z,3.80
2023-02-03T08:47:16.069Z,6.63
2023-02-03T08:49:42.965Z,4.15
2023-02-03T08:52:11.696Z,3.42
2023-02-03T08:54:38.879Z,4.65
2023-02-03T08:57:06.111Z,4.00
2023-02-03T08:59:36.118Z,4.22
2023-02-03T09:02:07.698Z,3.00
2023-02-03T09:04:34.669Z,3.90
2023-02-03T09:07:16.885Z,4.65
2023-02-03T09:09:43.627Z,2.03
2023-02-03T09:12:12.280Z,3.47
2023-02-03T09:14:39.186Z,2.78
2023-02-03T09:17:08.279Z,2.40
2023-02-03T09:19:36.548Z,3.20
2023-02-03T09:22:03.642Z,3.40
2023-02-03T09:24:30.732Z,3.33
2023-02-03T09:26:57.525Z,3.97
2023-02-03T09:29:24.214Z,6.72
2023-02-03T09:31:53.827Z,4.47
2023-02-03T09:34:21.238Z,4.85
2023-02-03T09:36:48.499Z,5.88
2023-02-03T09:39:15.554Z,4.10
2023-02-03T09:41:54.092Z,6.30
2023-02-03T09:44:36.159Z,3.53
2023-02-03T09:47:06.786Z,22.58
2023-02-03T09:49:52.257Z,3.75
2023-02-03T09:52:25.201Z,2.47
2023-02-03T09:55:20.790Z,2.45
2023-02-03T09:58:00.301Z,2.75
2023-02-03T10:00:51.820Z,3.45
2023-02-03T10:03:43.166Z,2.13
2023-02-03T10:06:21.902Z,1.73
2023-02-03T10:09:03.537Z,1.70
2023-02-03T10:11:38.894Z,1.63
2023-02-03T10:14:36.695Z,4.05
2023-02-03T10:17:19.771Z,2.45
2023-02-03T10:19:49.344Z,2.13
2023-02-03T10:22:20.266Z,1.50
2023-02-03T10:24:52.107Z,3.92
2023-02-03T10:27:21.127Z,4.25
2023-02-03T10:30:27.447Z,2.97
2023-02-03T10:33:02.403Z,4.47
2023-02-03T10:35:38.451Z,3.50
2023-02-03T10:38:06.549Z,2.13
2023-02-03T10:40:33.259Z,3.08
2023-02-03T10:43:18.568Z,2.53
2023-02-03T10:45:45.332Z,3.70
2023-02-03T10:48:16.642Z,1.60
2023-02-03T10:50:48.193Z,2.60
2023-02-03T10:53:35.055Z,2.30
2023-02-03T10:56:05.672Z,4.32
2023-02-03T10:58:34.762Z,1.55
2023-02-03T11:01:21.866Z,3.08
2023-02-03T11:04:03.880Z,1.40
2023-02-03T11:06:32.266Z,1.63
2023-02-03T11:08:59.278Z,3.80
2023-02-03T11:11:32.500Z,2.42
2023-02-03T11:14:02.408Z,2.78
2023-02-03T11:16:33.738Z,1.75
2023-02-03T11:19:00.441Z,2.58
2023-02-03T11:21:39.015Z,1.73
2023-02-03T11:24:30.253Z,1.73
2023-02-03T11:27:15.680Z,1.15
2023-02-03T11:29:44.754Z,2.42
2023-02-03T11:32:18.718Z,2.22
2023-02-03T11:35:27.412Z,3.47
2023-02-03T11:37:57.529Z,1.42
2023-02-03T11:40:29.056Z,3.53
2023-02-03T11:42:55.920Z,1.77
2023-02-03T11:45:39.395Z,3.28
2023-02-03T11:48:23.860Z,1.90
2023-02-03T11:51:04.539Z,1.50
2023-02-03T11:53:56.949Z,2.28
2023-02-03T11:56:54.708Z,2.05
2023-02-03T11:59:31.153Z,2.45
2023-02-03T12:02:26.227Z,3.55
2023-02-03T12:04:55.983Z,1.75
2023-02-03T12:07:32.400Z,4.60
2023-02-03T12:10:18.048Z,2.13
2023-02-03T12:13:23.203Z,3.08
2023-02-03T12:16:08.876Z,3.92
2023-02-03T12:18:59.109Z,2.85
2023-02-03T12:21:45.616Z,1.73
2023-02-03T12:24:39.210Z,2.05
2023-02-03T12:27:25.606Z,2.30
2023-02-03T12:30:12.573Z,2.78
2023-02-03T12:32:48.086Z,1.17
2023-02-03T12:35:28.947Z,1.17
2023-02-03T12:38:18.280Z,2.67
2023-02-03T12:40:49.521Z,3.60
2023-02-03T12:43:49.196Z,1.92
2023-02-03T12:46:26.439Z,1.30
2023-02-03T12:49:05.129Z,3.90
2023-02-03T12:51:39.867Z,1.95
2023-02-03T12:56:47.648Z,1.98
2023-02-03T12:59:19.970Z,2.03
2023-02-03T13:01:54.980Z,2.25
2023-02-03T13:04:35.140Z,3.22
2023-02-03T13:07:11.562Z,2.22
2023-02-03T13:09:42.029Z,1.45
2023-02-03T13:12:20.840Z,1.80
2023-02-03T13:14:51.720Z,2.95
2023-02-03T13:17:25.819Z,1.50
2023-02-03T13:19:58.514Z,4.40
2023-02-03T13:22:25.264Z,2.60
2023-02-03T13:25:01.222Z,3.05
2023-02-03T13:27:42.419Z,2.30
2023-02-03T13:30:18.219Z,2.22
2023-02-03T13:33:23.163Z,1.63
2023-02-03T13:36:15.385Z,1.90
2023-02-03T13:39:07.334Z,1.40
2023-02-03T13:41:42.721Z,2.17
2023-02-03T13:44:14.687Z,2.42
2023-02-03T13:46:42.044Z,4.00
2023-02-03T13:49:09.407Z,1.60
2023-02-03T13:51:38.384Z,1.85
2023-02-03T13:54:21.712Z,2.13
2023-02-03T13:56:57.508Z,2.30
2023-02-03T13:59:31.919Z,1.52
2023-02-03T14:02:23.621Z,2.08
2023-02-03T14:05:32.211Z,2.63
2023-02-03T14:07:59.069Z,3.08
2023-02-03T14:10:25.768Z,2.20
2023-02-03T14:12:52.495Z,2.35
2023-02-03T14:15:25.856Z,1.67
2023-02-03T14:18:04.168Z,3.47
2023-02-03T14:20:51.237Z,3.40
2023-02-03T14:23:22.760Z,4.18
2023-02-03T14:25:52.877Z,5.38
2023-02-03T14:28:41.043Z,1.42
2023-02-03T14:31:20.571Z,1.40
2023-02-03T14:33:57.295Z,1.83
2023-02-03T14:36:37.933Z,2.08
2023-02-03T14:39:20.164Z,1.95
2023-02-03T14:42:02.350Z,2.20
2023-02-03T14:45:01.893Z,2.78
2023-02-03T14:47:34.786Z,1.85
2023-02-03T14:50:39.462Z,2.78
2023-02-03T14:53:21.474Z,1.80
2023-02-03T14:56:11.423Z,2.22
2023-02-03T14:59:04.690Z,3.78
2023-02-03T15:01:37.717Z,2.03
2023-02-03T15:04:13.655Z,1.67
2023-02-03T15:06:46.850Z,2.20
2023-02-03T15:09:43.211Z,2.45
2023-02-03T15:12:23.956Z,2.47
2023-02-03T15:14:50.695Z,2.03
2023-02-03T15:17:27.131Z,2.60
2023-02-03T15:19:54.472Z,1.63
2023-02-03T15:22:27.358Z,3.78
2023-02-03T15:24:57.137Z,2.55
2023-02-03T15:27:28.786Z,1.50
2023-02-03T15:29:59.008Z,1.98
2023-02-03T15:32:30.967Z,4.32
2023-02-03T15:34:58.893Z,2.38
2023-02-03T15:37:41.931Z,1.67
2023-02-03T15:40:20.074Z,2.53
2023-02-03T15:42:53.921Z,3.88
2023-02-03T15:45:28.269Z,2.60
2023-02-03T15:48:12.684Z,4.13
2023-02-03T15:50:47.566Z,2.42
2023-02-03T15:53:46.678Z,2.17
2023-02-03T15:56:37.557Z,3.42
2023-02-03T15:59:05.656Z,5.32
2023-02-03T16:01:32.561Z,3.97
2023-02-03T16:03:59.522Z,3.45
2023-02-03T16:06:39.147Z,2.75
2023-02-03T16:09:07.461Z,2.30
2023-02-03T16:11:39.179Z,3.05
2023-02-03T16:14:09.161Z,3.47
2023-02-03T16:16:49.384Z,5.07
2023-02-03T16:19:23.370Z,3.13
2023-02-03T16:21:50.173Z,5.68
2023-02-03T16:24:32.360Z,3.38
2023-02-03T16:27:27.676Z,3.17
2023-02-03T16:30:23.109Z,5.28
2023-02-03T16:33:27.528Z,3.67
2023-02-03T16:36:13.880Z,3.55
2023-02-03T16:39:06.326Z,3.45
2023-02-03T16:41:52.198Z,3.25
2023-02-03T16:44:37.966Z,3.58
2023-02-03T16:47:40.236Z,3.42
2023-02-03T16:50:37.903Z,4.57
2023-02-03T16:53:05.749Z,4.60
2023-02-03T16:55:32.637Z,3.97
2023-02-03T16:57:59.386Z,6.32
2023-02-03T17:00:26.224Z,3.30
2023-02-03T17:02:52.925Z,5.00
2023-02-03T17:05:20.111Z,5.00
2023-02-03T17:07:47.110Z,3.72
2023-02-03T17:10:14.077Z,4.00
2023-02-03T17:12:40.943Z,4.05
2023-02-03T17:15:08.408Z,6.53
2023-02-03T17:17:35.245Z,6.88
2023-02-03T17:20:02.184Z,5.90
2023-02-03T17:22:30.389Z,5.15
2023-02-03T17:24:57.096Z,5.85
2023-02-03T17:27:23.860Z,5.88
2023-02-03T17:29:50.507Z,5.60
2023-02-03T17:32:17.379Z,5.70
2023-02-03T17:34:44.532Z,6.82
2023-02-03T17:37:11.461Z,6.32
2023-02-03T17:53:19.874Z,8.13
2023-02-03T17:58:15.189Z,9.38
2023-02-03T18:00:41.886Z,9.55
2023-02-03T18:03:09.061Z,8.07
2023-02-03T18:05:37.211Z,8.27
2023-02-03T18:08:09.260Z,7.63
2023-02-03T18:10:43.205Z,7.68
2023-02-03T18:13:10.040Z,7.88
2023-02-03T18:15:38.496Z,8.00
2023-02-03T18:18:05.863Z,8.95
2023-02-03T18:20:32.697Z,11.95
2023-02-03T18:22:59.365Z,7.85
2023-02-03T18:25:26.059Z,7.93
2023-02-03T18:27:52.817Z,9.10
2023-02-03T18:30:21.572Z,8.15
2023-02-03T18:32:52.627Z,7.80
2023-02-03T18:35:19.475Z,7.88
2023-02-03T18:37:46.255Z,8.30
2023-02-03T18:40:12.995Z,8.30
2023-02-03T18:42:39.734Z,7.28
2023-02-03T18:45:07.117Z,7.28
2023-02-03T18:47:34.252Z,8.48
2023-02-03T18:50:01.065Z,11.43
2023-02-03T18:52:27.817Z,9.88
2023-02-03T18:54:54.549Z,10.23
2023-02-03T18:57:22.588Z,9.52
2023-02-03T18:59:49.669Z,10.38
2023-02-03T19:02:16.581Z,11.50
2023-02-03T19:04:43.502Z,10.30
2023-02-03T19:07:12.276Z,9.48
2023-02-03T19:09:39.968Z,11.38
2023-02-03T19:12:07.988Z,11.30
2023-02-03T19:14:35.351Z,13.35
2023-02-03T19:17:03.041Z,9.38
2023-02-03T19:19:29.776Z,8.90
2023-02-03T19:21:58.371Z,8.57
2023-02-03T19:24:26.745Z,14.40
2023-02-03T19:26:54.244Z,9.63
2023-02-03T19:29:20.968Z,9.73
2023-02-03T19:31:47.833Z,8.52
2023-02-03T19:34:18.339Z,10.02
2023-02-03T19:36:47.056Z,8.60
2023-02-03T19:39:14.281Z,6.80
2023-02-03T19:41:41.153Z,8.05
2023-02-03T19:44:08.007Z,9.00
2023-02-03T19:46:37.934Z,8.90
2023-02-03T19:49:06.634Z,9.32
2023-02-03T19:51:34.181Z,7.65
2023-02-03T19:54:01.312Z,7.80
2023-02-03T19:56:28.252Z,5.80
2023-02-03T19:58:55.005Z,7.60
2023-02-03T20:01:23.087Z,6.88
2023-02-03T20:03:50.626Z,5.60
2023-02-03T20:06:18.061Z,5.43
2023-02-03T20:08:44.756Z,3.65
2023-02-03T20:11:11.521Z,5.15
2023-02-03T20:13:38.299Z,5.13
2023-02-03T20:16:05.256Z,4.53
2023-02-03T20:18:31.983Z,2.60
2023-02-03T20:20:59.618Z,3.15
2023-02-03T20:23:26.354Z,3.28
2023-02-03T20:25:54.559Z,3.63
2023-02-03T20:28:22.877Z,3.05
2023-02-03T20:30:51.785Z,2.47
2023-02-03T20:33:18.809Z,3.47
2023-02-03T20:35:45.743Z,2.70
2023-02-03T20:38:13.358Z,3.55
2023-02-03T20:40:40.093Z,4.70
2023-02-03T20:43:15.731Z,7.15
2023-02-03T20:45:42.688Z,9.07
2023-02-03T20:48:11.606Z,10.13
2023-02-03T20:50:42.584Z,7.57
2023-02-03T20:53:14.314Z,7.15
2023-02-03T20:55:41.398Z,7.03
2023-02-03T20:58:41.229Z,9.00
2023-02-03T21:01:16.416Z,7.78
2023-02-03T21:04:02.417Z,9.20
2023-02-03T21:06:30.619Z,11.10
2023-02-03T21:09:03.429Z,9.23
2023-02-03T21:11:30.865Z,12.98
2023-02-03T21:13:58.312Z,15.93
2023-02-03T21:16:35.418Z,16.23
2023-02-03T21:19:02.674Z,19.50
2023-02-03T21:21:34.723Z,23.65
2023-02-03T21:24:01.460Z,28.50
2023-02-03T21:26:30.569Z,30.10
2023-02-03T21:28:59.224Z,34.35
2023-02-03T21:31:31.706Z,33.85
2023-02-03T21:34:00.709Z,37.22
2023-02-03T21:36:30.934Z,36.25
2023-02-03T21:39:00.003Z,35.78
2023-02-03T21:41:33.015Z,40.30
2023-02-03T21:44:00.684Z,36.67
2023-02-03T21:46:29.740Z,31.05
2023-02-03T21:49:03.775Z,43.28
2023-02-03T21:51:33.842Z,38.17
2023-02-03T21:54:02.533Z,32.58
2023-02-03T21:56:41.575Z,38.70
2023-02-03T21:59:28.485Z,37.25
2023-02-03T22:01:57.769Z,40.38
2023-02-03T22:04:29.093Z,47.50
2023-02-03T22:06:56.341Z,35.72
2023-02-03T22:09:25.130Z,47.53
2023-02-03T22:11:52.517Z,58.78
2023-02-03T22:14:22.959Z,59.30
2023-02-03T22:16:50.242Z,74.32
2023-02-03T22:19:17.552Z,59.53
2023-02-03T22:21:44.795Z,47.42
2023-02-03T22:24:11.614Z,57.42
2023-02-03T22:26:38.397Z,43.30
2023-02-03T22:29:05.648Z,47.83
2023-02-03T22:31:32.689Z,48.45
2023-02-03T22:33:59.493Z,81.85
2023-02-03T22:36:26.272Z,63.38
2023-02-03T22:38:53.115Z,49.10
2023-02-03T22:41:20.882Z,55.17
2023-02-03T22:43:48.029Z,49.33
2023-02-03T22:46:14.791Z,63.88
2023-02-03T22:48:41.612Z,65.70
2023-02-03T22:51:08.801Z,66.22
2023-02-03T22:53:35.576Z,54.72
2023-02-03T22:56:02.449Z,76.70
2023-02-03T22:58:29.154Z,60.15
2023-02-03T23:00:56.555Z,77.35
2023-02-03T23:03:26.924Z,82.88
2023-02-03T23:05:53.767Z,56.97
2023-02-03T23:08:20.630Z,61.25
2023-02-03T23:10:48.213Z,60.40
2023-02-03T23:13:14.940Z,76.55
2023-02-03T23:15:41.672Z,77.28
2023-02-03T23:18:08.464Z,75.15
2023-02-03T23:20:35.145Z,90.35
2023-02-03T23:23:01.854Z,76.03
2023-02-03T23:25:28.578Z,72.68
2023-02-03T23:27:55.531Z,103.10
2023-02-03T23:30:22.359Z,77.47
2023-02-03T23:32:49.249Z,51.50
2023-02-03T23:35:34.605Z,67.75
2023-02-03T23:38:01.332Z,61.88
2023-02-03T23:40:28.250Z,71.93
2023-02-03T23:42:55.250Z,80.75
2023-02-03T23:45:22.007Z,79.97
2023-02-03T23:47:48.704Z,73.05
2023-02-03T23:50:17.177Z,371.27
2023-02-03T23:52:43.911Z,82.43
2023-02-03T23:55:13.103Z,72.45
2023-02-03T23:57:42.535Z,177.30
